TimeMST,TemperatureF,Dew PointF,Humidity,Sea Level PressureIn,VisibilityMPH,Wind Direction,Wind SpeedMPH,Gust SpeedMPH,PrecipitationIn,Events,Conditions,WindDirDegrees,DateUTC
12:15 AM,41.7,20.1,42,30.28,10.0,SW,11.5,18.4,N/A,,Clear,230,2012-11-30 07:15:00
12:55 AM,42.1,21.7,44,30.27,10.0,SSW,11.5,-,N/A,,Clear,210,2012-11-30 07:55:00
1:15 AM,41.0,21.2,45,30.27,10.0,SW,11.5,-,N/A,,Clear,230,2012-11-30 08:15:00
1:35 AM,37.0,19.2,49,30.27,10.0,NNW,6.9,-,N/A,,Clear,330,2012-11-30 08:35:00
1:55 AM,35.8,19.6,52,30.27,10.0,Calm,Calm,-,N/A,,Clear,0,2012-11-30 08:55:00
2:15 AM,35.8,20.7,54,30.26,10.0,SSW,3.5,-,N/A,,Clear,210,2012-11-30 09:15:00
2:35 AM,42.3,21.9,44,30.26,10.0,SW,5.8,16.1,N/A,,Clear,220,2012-11-30 09:35:00
2:55 AM,42.1,22.1,45,30.26,10.0,SSW,8.1,-,N/A,,Clear,210,2012-11-30 09:55:00
3:15 AM,34.2,19.2,54,30.26,10.0,NNW,8.1,-,N/A,,Clear,340,2012-11-30 10:15:00
3:35 AM,34.9,19.9,55,30.25,10.0,NNW,3.5,-,N/A,,Clear,330,2012-11-30 10:35:00
3:55 AM,34.5,19.4,54,30.25,10.0,NNW,9.2,-,N/A,,Clear,330,2012-11-30 10:55:00
4:15 AM,35.2,20.3,55,30.24,10.0,NNW,8.1,-,N/A,,Clear,330,2012-11-30 11:15:00
4:35 AM,33.1,19.4,57,30.24,10.0,NW,6.9,-,N/A,,Clear,320,2012-11-30 11:35:00
4:55 AM,33.6,19.0,55,30.24,10.0,NNW,9.2,-,N/A,,Clear,340,2012-11-30 11:55:00
5:15 AM,33.4,19.0,56,30.25,10.0,NNW,6.9,-,N/A,,Clear,330,2012-11-30 12:15:00
5:35 AM,33.4,19.2,56,30.25,10.0,NNW,10.4,-,N/A,,Clear,330,2012-11-30 12:35:00
5:55 AM,32.4,19.0,58,30.24,10.0,North,10.4,-,N/A,,Clear,350,2012-11-30 12:55:00
6:15 AM,32.0,18.5,58,30.24,10.0,NNW,13.8,18.4,N/A,,Clear,340,2012-11-30 13:15:00
6:35 AM,32.2,18.5,57,30.24,10.0,North,10.4,-,N/A,,Clear,350,2012-11-30 13:35:00
6:55 AM,32.0,18.9,58,30.24,10.0,NW,5.8,-,N/A,,Clear,320,2012-11-30 13:55:00
7:15 AM,31.8,18.5,58,30.24,10.0,NW,3.5,-,N/A,,Clear,310,2012-11-30 14:15:00
7:35 AM,30.7,17.8,59,30.24,10.0,NNW,11.5,-,N/A,,Clear,330,2012-11-30 14:35:00
7:55 AM,30.9,17.6,58,30.24,10.0,NW,10.4,-,N/A,,Clear,320,2012-11-30 14:55:00
8:15 AM,31.5,18.1,58,30.24,10.0,NNW,8.1,-,N/A,,Clear,330,2012-11-30 15:15:00
8:35 AM,32.9,18.3,55,30.24,10.0,NW,8.1,-,N/A,,Clear,320,2012-11-30 15:35:00
8:55 AM,33.6,18.5,54,30.24,10.0,NW,5.8,-,N/A,,Clear,320,2012-11-30 15:55:00
9:15 AM,35.6,18.7,50,30.24,10.0,NW,4.6,-,N/A,,Clear,310,2012-11-30 16:15:00
9:35 AM,37.6,19.2,48,30.23,10.0,NNW,4.6,-,N/A,,Clear,330,2012-11-30 16:35:00
9:55 AM,39.9,19.2,43,30.22,10.0,NNW,4.6,-,N/A,,Clear,340,2012-11-30 16:55:00
10:15 AM,42.3,19.4,40,30.21,10.0,NW,5.8,-,N/A,,Clear,320,2012-11-30 17:15:00
10:35 AM,44.4,19.8,37,30.20,10.0,North,3.5,-,N/A,,Clear,360,2012-11-30 17:35:00
10:55 AM,45.7,19.2,35,30.17,10.0,Calm,Calm,-,N/A,,Clear,0,2012-11-30 17:55:00
11:15 AM,54.5,16.9,23,30.16,10.0,SW,15.0,21.9,N/A,,Clear,220,2012-11-30 18:15:00
11:55 AM,57.4,15.6,19,30.13,10.0,SW,24.2,31.1,N/A,,Clear,220,2012-11-30 18:55:00
12:15 PM,57.9,14.5,18,30.11,10.0,SW,17.3,27.6,N/A,,Clear,220,2012-11-30 19:15:00
12:35 PM,58.5,14.4,18,30.11,10.0,SW,10.4,24.2,N/A,,Clear,230,2012-11-30 19:35:00
12:55 PM,58.8,14.4,18,30.11,10.0,SW,9.2,21.9,N/A,,Clear,230,2012-11-30 19:55:00
1:15 PM,59.0,13.5,17,30.11,10.0,SW,8.1,18.4,N/A,,Clear,220,2012-11-30 20:15:00
1:35 PM,58.3,14.5,18,30.10,10.0,SSW,9.2,19.6,N/A,,Scattered Clouds,210,2012-11-30 20:35:00
1:55 PM,57.7,14.9,19,30.10,10.0,WSW,6.9,-,N/A,,Clear,250,2012-11-30 20:55:00
2:15 PM,58.3,14.9,18,30.10,10.0,SSW,12.7,17.3,N/A,,Clear,200,2012-11-30 21:15:00
2:35 PM,57.4,15.1,19,30.10,10.0,West,10.4,-,N/A,,Clear,270,2012-11-30 21:35:00
2:55 PM,58.1,15.8,19,30.09,10.0,West,10.4,-,N/A,,Clear,270,2012-11-30 21:55:00
3:15 PM,57.6,16.3,20,30.10,10.0,West,12.7,19.6,N/A,,Clear,260,2012-11-30 22:15:00
3:35 PM,56.1,16.5,21,30.10,10.0,WSW,9.2,20.7,N/A,,Clear,240,2012-11-30 22:35:00
3:55 PM,54.7,17.1,23,30.10,10.0,SW,12.7,21.9,N/A,,Clear,230,2012-11-30 22:55:00
4:15 PM,53.4,17.6,24,30.11,10.0,West,11.5,16.1,N/A,,Clear,260,2012-11-30 23:15:00
4:35 PM,52.9,17.6,25,30.11,10.0,WSW,10.4,18.4,N/A,,Clear,250,2012-11-30 23:35:00
4:55 PM,53.1,17.6,25,30.10,10.0,SW,11.5,16.1,N/A,,Clear,230,2012-11-30 23:55:00
5:15 PM,51.6,17.6,26,30.10,10.0,West,8.1,16.1,N/A,,Clear,260,2012-12-01 00:15:00
5:35 PM,52.3,17.6,25,30.09,10.0,SSW,16.1,21.9,N/A,,Clear,200,2012-12-01 00:35:00
5:55 PM,52.5,17.2,25,30.10,10.0,SW,19.6,31.1,N/A,,Clear,220,2012-12-01 00:55:00
6:15 PM,52.3,17.1,25,30.12,10.0,SSW,19.6,28.8,N/A,,Clear,210,2012-12-01 01:15:00
6:35 PM,51.8,16.7,25,30.12,10.0,SW,16.1,23.0,N/A,,Clear,220,2012-12-01 01:35:00
6:55 PM,51.3,16.7,25,30.11,10.0,SSW,15.0,24.2,N/A,,Clear,200,2012-12-01 01:55:00
7:15 PM,51.4,16.5,25,30.10,10.0,South,17.3,24.2,N/A,,Clear,190,2012-12-01 02:15:00
7:35 PM,51.6,16.5,25,30.10,10.0,SSW,9.2,-,N/A,,Clear,200,2012-12-01 02:35:00
7:55 PM,51.8,16.7,25,30.10,10.0,South,18.4,21.9,N/A,,Clear,180,2012-12-01 02:55:00
8:15 PM,51.1,16.7,26,30.10,10.0,SSW,13.8,19.6,N/A,,Clear,200,2012-12-01 03:15:00
8:35 PM,50.9,16.7,26,30.10,10.0,South,9.2,18.4,N/A,,Clear,190,2012-12-01 03:35:00
8:55 PM,50.4,17.2,27,30.11,10.0,SSW,13.8,21.9,N/A,,Clear,200,2012-12-01 03:55:00
9:15 PM,50.7,18.0,27,30.10,10.0,South,10.4,21.9,N/A,,Clear,190,2012-12-01 04:15:00
9:35 PM,49.1,18.1,29,30.10,10.0,South,13.8,19.6,N/A,,Clear,190,2012-12-01 04:35:00
9:55 PM,49.5,18.5,29,30.12,10.0,SSW,9.2,21.9,N/A,,Clear,200,2012-12-01 04:55:00
10:15 PM,48.7,19.0,31,30.11,10.0,SSW,11.5,16.1,N/A,,Scattered Clouds,200,2012-12-01 05:15:00
10:35 PM,49.1,19.4,31,30.11,10.0,South,12.7,17.3,N/A,,Mostly Cloudy,180,2012-12-01 05:35:00
10:55 PM,49.1,19.9,32,30.12,10.0,SSW,5.8,-,N/A,,Overcast,200,2012-12-01 05:55:00
11:15 PM,49.6,20.3,31,30.12,10.0,SSW,9.2,16.1,N/A,,Mostly Cloudy,200,2012-12-01 06:15:00
11:35 PM,49.3,21.0,33,30.12,10.0,SSW,11.5,20.7,N/A,,Scattered Clouds,200,2012-12-01 06:35:00
11:55 PM,48.7,20.7,33,30.10,10.0,SSE,6.9,-,N/A,,Scattered Clouds,160,2012-12-01 06:55:00